sensor_id;sensor_type;location;lat;lon;timestamp;temperature;humidity
1429;DHT22;708;51.442;7.016;2023-03-14T00:00:40;12.50;99.90
1429;DHT22;708;51.442;7.016;2023-03-14T00:03:07;12.50;99.90
1429;DHT22;708;51.442;7.016;2023-03-14T00:05:34;12.50;99.90
1429;DHT22;708;51.442;7.016;2023-03-14T00:08:02;12.50;99.90
1429;DHT22;708;51.442;7.016;2023-03-14T00:10:28;12.40;99.90
1429;DHT22;708;51.442;7.016;2023-03-14T00:12:55;12.40;99.90
1429;DHT22;708;51.442;7.016;2023-03-14T00:15:22;12.40;99.90
1429;DHT22;708;51.442;7.016;2023-03-14T00:17:49;12.30;99.90
1429;DHT22;708;51.442;7.016;2023-03-14T00:20:16;12.30;99.90
1429;DHT22;708;51.442;7.016;2023-03-14T00:22:42;12.30;99.90
1429;DHT22;708;51.442;7.016;2023-03-14T00:25:11;12.40;99.90
1429;DHT22;708;51.442;7.016;2023-03-14T00:27:38;12.40;99.90
1429;DHT22;708;51.442;7.016;2023-03-14T00:30:06;12.50;99.90
1429;DHT22;708;51.442;7.016;2023-03-14T00:32:34;12.60;99.90
1429;DHT22;708;51.442;7.016;2023-03-14T00:35:01;12.60;99.90
1429;DHT22;708;51.442;7.016;2023-03-14T00:37:28;12.60;99.90
1429;DHT22;708;51.442;7.016;2023-03-14T00:39:55;12.60;99.90
1429;DHT22;708;51.442;7.016;2023-03-14T00:42:24;12.70;99.90
1429;DHT22;708;51.442;7.016;2023-03-14T00:44:50;12.80;99.90
1429;DHT22;708;51.442;7.016;2023-03-14T00:47:17;12.80;99.90
1429;DHT22;708;51.442;7.016;2023-03-14T00:49:44;12.80;99.90
1429;DHT22;708;51.442;7.016;2023-03-14T00:52:11;12.70;1.00
1429;DHT22;708;51.442;7.016;2023-03-14T00:54:37;12.50;1.00
1429;DHT22;708;51.442;7.016;2023-03-14T00:57:04;12.40;1.00
1429;DHT22;708;51.442;7.016;2023-03-14T00:59:35;12.20;1.00
1429;DHT22;708;51.442;7.016;2023-03-14T01:02:02;12.10;13.30
1429;DHT22;708;51.442;7.016;2023-03-14T01:04:29;12.00;23.30
1429;DHT22;708;51.442;7.016;2023-03-14T01:06:56;11.80;24.50
1429;DHT22;708;51.442;7.016;2023-03-14T01:09:23;11.70;19.90
1429;DHT22;708;51.442;7.016;2023-03-14T01:11:50;11.60;11.60
1429;DHT22;708;51.442;7.016;2023-03-14T01:14:16;11.40;3.80
1429;DHT22;708;51.442;7.016;2023-03-14T01:16:44;11.40;14.20
1429;DHT22;708;51.442;7.016;2023-03-14T01:19:11;11.40;23.00
1429;DHT22;708;51.442;7.016;2023-03-14T01:21:38;11.40;27.00
1429;DHT22;708;51.442;7.016;2023-03-14T01:24:06;11.30;19.50
1429;DHT22;708;51.442;7.016;2023-03-14T01:26:34;11.30;26.50
1429;DHT22;708;51.442;7.016;2023-03-14T01:29:01;11.30;33.00
1429;DHT22;708;51.442;7.016;2023-03-14T01:31:29;11.30;37.90
1429;DHT22;708;51.442;7.016;2023-03-14T01:33:57;11.30;40.00
1429;DHT22;708;51.442;7.016;2023-03-14T01:36:24;11.30;42.70
1429;DHT22;708;51.442;7.016;2023-03-14T01:38:50;11.20;49.00
1429;DHT22;708;51.442;7.016;2023-03-14T01:41:19;11.20;60.00
1429;DHT22;708;51.442;7.016;2023-03-14T01:43:46;11.20;71.30
1429;DHT22;708;51.442;7.016;2023-03-14T01:46:24;11.20;79.00
1429;DHT22;708;51.442;7.016;2023-03-14T01:49:07;11.20;77.20
1429;DHT22;708;51.442;7.016;2023-03-14T01:51:41;11.20;71.50
1429;DHT22;708;51.442;7.016;2023-03-14T01:54:14;11.20;61.90
1429;DHT22;708;51.442;7.016;2023-03-14T01:56:44;11.20;62.10
1429;DHT22;708;51.442;7.016;2023-03-14T01:59:12;11.20;52.20
1429;DHT22;708;51.442;7.016;2023-03-14T02:01:43;11.20;50.80
1429;DHT22;708;51.442;7.016;2023-03-14T02:04:13;11.20;50.30
1429;DHT22;708;51.442;7.016;2023-03-14T02:06:47;11.20;45.80
1429;DHT22;708;51.442;7.016;2023-03-14T02:09:15;11.20;44.20
1429;DHT22;708;51.442;7.016;2023-03-14T02:11:43;11.20;38.90
1429;DHT22;708;51.442;7.016;2023-03-14T02:14:17;11.20;32.00
1429;DHT22;708;51.442;7.016;2023-03-14T02:16:45;11.20;23.60
1429;DHT22;708;51.442;7.016;2023-03-14T02:19:14;11.20;11.30
1429;DHT22;708;51.442;7.016;2023-03-14T02:21:49;11.20;10.60
1429;DHT22;708;51.442;7.016;2023-03-14T02:24:22;11.30;13.80
1429;DHT22;708;51.442;7.016;2023-03-14T02:27:07;11.30;6.50
1429;DHT22;708;51.442;7.016;2023-03-14T02:29:36;11.30;7.10
1429;DHT22;708;51.442;7.016;2023-03-14T02:32:04;11.30;3.60
1429;DHT22;708;51.442;7.016;2023-03-14T02:34:31;11.40;1.00
1429;DHT22;708;51.442;7.016;2023-03-14T02:36:58;11.30;1.00
1429;DHT22;708;51.442;7.016;2023-03-14T02:39:32;11.40;1.00
1429;DHT22;708;51.442;7.016;2023-03-14T02:42:01;11.40;1.00
1429;DHT22;708;51.442;7.016;2023-03-14T02:44:29;11.40;1.00
1429;DHT22;708;51.442;7.016;2023-03-14T02:46:57;11.50;1.00
1429;DHT22;708;51.442;7.016;2023-03-14T02:49:24;11.50;1.00
1429;DHT22;708;51.442;7.016;2023-03-14T02:51:52;11.60;1.00
1429;DHT22;708;51.442;7.016;2023-03-14T02:54:19;11.60;1.00
1429;DHT22;708;51.442;7.016;2023-03-14T02:56:46;11.60;1.00
1429;DHT22;708;51.442;7.016;2023-03-14T02:59:13;11.60;1.00
1429;DHT22;708;51.442;7.016;2023-03-14T03:01:41;11.60;1.00
1429;DHT22;708;51.442;7.016;2023-03-14T03:04:08;11.60;1.00
1429;DHT22;708;51.442;7.016;2023-03-14T03:06:34;11.60;1.00
1429;DHT22;708;51.442;7.016;2023-03-14T03:09:01;11.50;1.00
1429;DHT22;708;51.442;7.016;2023-03-14T03:11:28;11.50;1.00
1429;DHT22;708;51.442;7.016;2023-03-14T03:13:55;11.40;1.00
1429;DHT22;708;51.442;7.016;2023-03-14T03:16:21;11.30;1.00
1429;DHT22;708;51.442;7.016;2023-03-14T03:18:49;11.30;1.00
1429;DHT22;708;51.442;7.016;2023-03-14T03:21:16;11.30;1.00
1429;DHT22;708;51.442;7.016;2023-03-14T03:23:44;11.30;1.00
1429;DHT22;708;51.442;7.016;2023-03-14T03:26:10;11.30;1.00
1429;DHT22;708;51.442;7.016;2023-03-14T03:28:37;11.30;1.00
1429;DHT22;708;51.442;7.016;2023-03-14T03:31:08;11.30;1.00
1429;DHT22;708;51.442;7.016;2023-03-14T03:33:35;11.30;1.00
1429;DHT22;708;51.442;7.016;2023-03-14T03:36:04;11.30;1.00
1429;DHT22;708;51.442;7.016;2023-03-14T03:38:31;11.20;1.00
1429;DHT22;708;51.442;7.016;2023-03-14T03:40:58;11.20;1.00
1429;DHT22;708;51.442;7.016;2023-03-14T03:43:24;11.30;1.00
1429;DHT22;708;51.442;7.016;2023-03-14T03:45:51;11.30;1.00
1429;DHT22;708;51.442;7.016;2023-03-14T03:48:18;11.30;1.00
1429;DHT22;708;51.442;7.016;2023-03-14T03:50:45;11.30;1.00
1429;DHT22;708;51.442;7.016;2023-03-14T03:53:13;11.30;14.60
1429;DHT22;708;51.442;7.016;2023-03-14T03:55:40;11.30;26.90
1429;DHT22;708;51.442;7.016;2023-03-14T03:58:07;11.30;34.80
1429;DHT22;708;51.442;7.016;2023-03-14T04:00:34;11.30;39.10
1429;DHT22;708;51.442;7.016;2023-03-14T04:03:01;11.30;43.90
1429;DHT22;708;51.442;7.016;2023-03-14T04:05:27;11.20;40.80
1429;DHT22;708;51.442;7.016;2023-03-14T04:07:54;11.20;43.20
1429;DHT22;708;51.442;7.016;2023-03-14T04:10:22;11.10;39.10
1429;DHT22;708;51.442;7.016;2023-03-14T04:12:49;10.90;51.80
1429;DHT22;708;51.442;7.016;2023-03-14T04:15:15;10.90;54.40
1429;DHT22;708;51.442;7.016;2023-03-14T04:17:42;10.90;58.40
1429;DHT22;708;51.442;7.016;2023-03-14T04:20:10;11.00;55.90
1429;DHT22;708;51.442;7.016;2023-03-14T04:22:37;11.00;57.20
1429;DHT22;708;51.442;7.016;2023-03-14T04:25:06;11.00;60.00
1429;DHT22;708;51.442;7.016;2023-03-14T04:27:34;10.90;48.80
1429;DHT22;708;51.442;7.016;2023-03-14T04:30:00;10.90;53.10
1429;DHT22;708;51.442;7.016;2023-03-14T04:32:27;10.90;64.10
1429;DHT22;708;51.442;7.016;2023-03-14T04:34:54;10.90;80.60
1429;DHT22;708;51.442;7.016;2023-03-14T04:37:20;10.80;83.70
1429;DHT22;708;51.442;7.016;2023-03-14T04:39:47;10.80;86.70
1429;DHT22;708;51.442;7.016;2023-03-14T04:42:14;10.80;88.10
1429;DHT22;708;51.442;7.016;2023-03-14T04:44:42;10.80;65.30
1429;DHT22;708;51.442;7.016;2023-03-14T04:47:08;10.70;59.70
1429;DHT22;708;51.442;7.016;2023-03-14T04:49:35;10.70;66.50
1429;DHT22;708;51.442;7.016;2023-03-14T04:52:02;10.60;65.40
1429;DHT22;708;51.442;7.016;2023-03-14T04:54:29;10.60;60.00
1429;DHT22;708;51.442;7.016;2023-03-14T04:56:56;10.60;70.90
1429;DHT22;708;51.442;7.016;2023-03-14T04:59:22;10.60;85.40
1429;DHT22;708;51.442;7.016;2023-03-14T05:01:51;10.60;94.00
1429;DHT22;708;51.442;7.016;2023-03-14T05:04:17;10.50;98.30
1429;DHT22;708;51.442;7.016;2023-03-14T05:06:44;10.50;99.90
1429;DHT22;708;51.442;7.016;2023-03-14T05:09:11;10.50;99.90
1429;DHT22;708;51.442;7.016;2023-03-14T05:11:38;10.50;99.90
1429;DHT22;708;51.442;7.016;2023-03-14T05:14:04;10.50;99.90
1429;DHT22;708;51.442;7.016;2023-03-14T05:16:31;10.50;99.90
1429;DHT22;708;51.442;7.016;2023-03-14T05:18:59;10.50;99.90
1429;DHT22;708;51.442;7.016;2023-03-14T05:21:27;10.50;99.90
1429;DHT22;708;51.442;7.016;2023-03-14T05:23:53;10.50;99.90
1429;DHT22;708;51.442;7.016;2023-03-14T05:26:20;10.50;99.90
1429;DHT22;708;51.442;7.016;2023-03-14T05:28:47;10.50;99.90
1429;DHT22;708;51.442;7.016;2023-03-14T05:31:13;10.50;99.90
1429;DHT22;708;51.442;7.016;2023-03-14T05:33:40;10.60;99.90
1429;DHT22;708;51.442;7.016;2023-03-14T05:36:08;10.50;99.90
1429;DHT22;708;51.442;7.016;2023-03-14T05:38:35;10.50;99.90
1429;DHT22;708;51.442;7.016;2023-03-14T05:41:02;10.50;99.90
1429;DHT22;708;51.442;7.016;2023-03-14T05:43:29;10.50;99.90
1429;DHT22;708;51.442;7.016;2023-03-14T05:45:55;10.60;99.90
1429;DHT22;708;51.442;7.016;2023-03-14T05:48:22;10.60;99.90
1429;DHT22;708;51.442;7.016;2023-03-14T05:50:54;10.60;99.90
1429;DHT22;708;51.442;7.016;2023-03-14T05:53:22;10.60;99.90
1429;DHT22;708;51.442;7.016;2023-03-14T05:55:51;10.60;99.90
1429;DHT22;708;51.442;7.016;2023-03-14T05:58:18;10.60;99.90
1429;DHT22;708;51.442;7.016;2023-03-14T06:00:44;10.60;99.90
1429;DHT22;708;51.442;7.016;2023-03-14T06:03:11;10.70;99.90
1429;DHT22;708;51.442;7.016;2023-03-14T06:05:38;10.60;99.90
1429;DHT22;708;51.442;7.016;2023-03-14T06:08:05;10.70;99.90
1429;DHT22;708;51.442;7.016;2023-03-14T06:10:34;10.70;99.90
1429;DHT22;708;51.442;7.016;2023-03-14T06:13:01;10.70;99.90
1429;DHT22;708;51.442;7.016;2023-03-14T06:15:28;10.80;99.90
1429;DHT22;708;51.442;7.016;2023-03-14T06:17:55;10.80;99.90
1429;DHT22;708;51.442;7.016;2023-03-14T06:20:22;10.80;99.90
1429;DHT22;708;51.442;7.016;2023-03-14T06:22:49;10.80;99.90
1429;DHT22;708;51.442;7.016;2023-03-14T06:25:15;10.80;99.90
1429;DHT22;708;51.442;7.016;2023-03-14T06:27:44;10.90;99.90
1429;DHT22;708;51.442;7.016;2023-03-14T06:30:11;10.90;99.90
1429;DHT22;708;51.442;7.016;2023-03-14T06:32:38;11.00;99.90
1429;DHT22;708;51.442;7.016;2023-03-14T06:35:05;11.00;99.90
1429;DHT22;708;51.442;7.016;2023-03-14T06:37:32;11.00;99.90
1429;DHT22;708;51.442;7.016;2023-03-14T06:39:58;11.10;99.90
1429;DHT22;708;51.442;7.016;2023-03-14T06:42:25;11.10;99.90
1429;DHT22;708;51.442;7.016;2023-03-14T06:44:53;11.20;99.90
1429;DHT22;708;51.442;7.016;2023-03-14T06:47:20;11.30;99.90
1429;DHT22;708;51.442;7.016;2023-03-14T06:49:46;11.30;99.90
1429;DHT22;708;51.442;7.016;2023-03-14T06:52:13;11.30;99.90
1429;DHT22;708;51.442;7.016;2023-03-14T06:54:40;11.40;99.90
1429;DHT22;708;51.442;7.016;2023-03-14T06:57:07;11.40;99.90
1429;DHT22;708;51.442;7.016;2023-03-14T06:59:33;11.40;99.90
1429;DHT22;708;51.442;7.016;2023-03-14T07:02:01;11.40;99.90
1429;DHT22;708;51.442;7.016;2023-03-14T07:04:28;11.50;99.90
1429;DHT22;708;51.442;7.016;2023-03-14T07:06:55;11.50;99.90
1429;DHT22;708;51.442;7.016;2023-03-14T07:09:21;11.50;99.90
1429;DHT22;708;51.442;7.016;2023-03-14T07:11:48;11.50;99.90
1429;DHT22;708;51.442;7.016;2023-03-14T07:14:15;11.60;99.90
1429;DHT22;708;51.442;7.016;2023-03-14T07:16:42;11.80;99.90
1429;DHT22;708;51.442;7.016;2023-03-14T07:19:12;11.90;97.20
1429;DHT22;708;51.442;7.016;2023-03-14T07:21:38;11.90;93.40
1429;DHT22;708;51.442;7.016;2023-03-14T07:24:05;11.90;94.90
1429;DHT22;708;51.442;7.016;2023-03-14T07:26:32;12.00;94.40
1429;DHT22;708;51.442;7.016;2023-03-14T07:28:59;12.10;92.20
1429;DHT22;708;51.442;7.016;2023-03-14T07:31:28;12.20;76.10
1429;DHT22;708;51.442;7.016;2023-03-14T07:33:55;12.20;68.90
1429;DHT22;708;51.442;7.016;2023-03-14T07:36:23;12.30;61.30
1429;DHT22;708;51.442;7.016;2023-03-14T07:38:50;12.40;49.50
1429;DHT22;708;51.442;7.016;2023-03-14T07:41:18;12.50;46.80
1429;DHT22;708;51.442;7.016;2023-03-14T07:43:46;12.50;53.80
1429;DHT22;708;51.442;7.016;2023-03-14T07:46:12;12.60;56.00
1429;DHT22;708;51.442;7.016;2023-03-14T07:48:39;12.60;53.40
1429;DHT22;708;51.442;7.016;2023-03-14T07:51:06;12.60;47.20
1429;DHT22;708;51.442;7.016;2023-03-14T07:53:34;12.60;54.10
1429;DHT22;708;51.442;7.016;2023-03-14T07:56:01;12.60;62.50
1429;DHT22;708;51.442;7.016;2023-03-14T07:58:28;12.50;66.00
1429;DHT22;708;51.442;7.016;2023-03-14T08:00:54;12.60;72.40
1429;DHT22;708;51.442;7.016;2023-03-14T08:03:21;12.60;76.70
1429;DHT22;708;51.442;7.016;2023-03-14T08:05:48;12.70;68.80
1429;DHT22;708;51.442;7.016;2023-03-14T08:08:15;12.70;73.70
1429;DHT22;708;51.442;7.016;2023-03-14T08:10:44;12.60;78.00
1429;DHT22;708;51.442;7.016;2023-03-14T08:13:12;12.60;90.20
1429;DHT22;708;51.442;7.016;2023-03-14T08:15:38;12.70;91.10
1429;DHT22;708;51.442;7.016;2023-03-14T08:18:05;12.70;93.90
1429;DHT22;708;51.442;7.016;2023-03-14T08:20:32;12.70;94.70
1429;DHT22;708;51.442;7.016;2023-03-14T08:23:00;12.70;96.20
1429;DHT22;708;51.442;7.016;2023-03-14T08:25:27;12.70;96.20
1429;DHT22;708;51.442;7.016;2023-03-14T08:27:56;12.70;98.90
1429;DHT22;708;51.442;7.016;2023-03-14T08:30:22;12.60;99.90
1429;DHT22;708;51.442;7.016;2023-03-14T08:32:49;12.60;99.90
1429;DHT22;708;51.442;7.016;2023-03-14T08:35:16;12.60;99.90
1429;DHT22;708;51.442;7.016;2023-03-14T08:37:43;12.70;99.90
1429;DHT22;708;51.442;7.016;2023-03-14T08:40:13;12.90;99.90
1429;DHT22;708;51.442;7.016;2023-03-14T08:42:41;13.10;99.90
1429;DHT22;708;51.442;7.016;2023-03-14T08:45:12;13.30;88.10
1429;DHT22;708;51.442;7.016;2023-03-14T08:47:39;13.40;66.60
1429;DHT22;708;51.442;7.016;2023-03-14T08:50:07;13.50;47.00
1429;DHT22;708;51.442;7.016;2023-03-14T08:52:34;13.50;58.20
1429;DHT22;708;51.442;7.016;2023-03-14T08:55:03;13.40;66.70
1429;DHT22;708;51.442;7.016;2023-03-14T08:57:30;13.40;61.00
1429;DHT22;708;51.442;7.016;2023-03-14T08:59:57;13.30;74.30
1429;DHT22;708;51.442;7.016;2023-03-14T09:02:26;13.10;86.00
1429;DHT22;708;51.442;7.016;2023-03-14T09:04:54;13.00;91.00
1429;DHT22;708;51.442;7.016;2023-03-14T09:07:20;12.80;92.50
1429;DHT22;708;51.442;7.016;2023-03-14T09:09:47;12.80;96.00
1429;DHT22;708;51.442;7.016;2023-03-14T09:12:14;12.70;91.20
1429;DHT22;708;51.442;7.016;2023-03-14T09:14:40;12.50;87.80
1429;DHT22;708;51.442;7.016;2023-03-14T09:17:07;12.40;88.00
1429;DHT22;708;51.442;7.016;2023-03-14T09:19:35;12.40;89.60
1429;DHT22;708;51.442;7.016;2023-03-14T09:22:02;12.40;94.10
1429;DHT22;708;51.442;7.016;2023-03-14T09:24:29;12.40;95.10
1429;DHT22;708;51.442;7.016;2023-03-14T09:26:56;12.40;96.00
1429;DHT22;708;51.442;7.016;2023-03-14T09:29:23;12.20;75.50
1429;DHT22;708;51.442;7.016;2023-03-14T09:31:50;12.00;53.60
1429;DHT22;708;51.442;7.016;2023-03-14T09:34:17;11.80;51.20
1429;DHT22;708;51.442;7.016;2023-03-14T09:36:45;11.60;37.50
1429;DHT22;708;51.442;7.016;2023-03-14T09:39:12;11.50;46.70
1429;DHT22;708;51.442;7.016;2023-03-14T09:41:41;11.40;49.60
1429;DHT22;708;51.442;7.016;2023-03-14T09:44:13;11.30;46.70
1429;DHT22;708;51.442;7.016;2023-03-14T09:46:43;11.20;34.00
1429;DHT22;708;51.442;7.016;2023-03-14T09:49:16;11.10;45.70
1429;DHT22;708;51.442;7.016;2023-03-14T09:51:46;11.10;48.70
1429;DHT22;708;51.442;7.016;2023-03-14T09:54:26;11.00;44.40
1429;DHT22;708;51.442;7.016;2023-03-14T09:56:56;10.90;52.80
1429;DHT22;708;51.442;7.016;2023-03-14T09:59:22;10.90;58.00
1429;DHT22;708;51.442;7.016;2023-03-14T10:01:50;10.80;54.00
1429;DHT22;708;51.442;7.016;2023-03-14T10:04:21;10.80;61.50
1429;DHT22;708;51.442;7.016;2023-03-14T10:06:50;10.70;43.20
1429;DHT22;708;51.442;7.016;2023-03-14T10:09:20;10.60;36.90
1429;DHT22;708;51.442;7.016;2023-03-14T10:11:55;10.40;39.70
1429;DHT22;708;51.442;7.016;2023-03-14T10:14:30;10.50;56.00
1429;DHT22;708;51.442;7.016;2023-03-14T10:17:05;10.40;55.00
1429;DHT22;708;51.442;7.016;2023-03-14T10:19:33;10.20;70.10
1429;DHT22;708;51.442;7.016;2023-03-14T10:22:03;10.00;87.50
1429;DHT22;708;51.442;7.016;2023-03-14T10:24:31;10.00;97.20
1429;DHT22;708;51.442;7.016;2023-03-14T10:27:00;10.00;91.90
1429;DHT22;708;51.442;7.016;2023-03-14T10:29:28;10.10;93.00
1429;DHT22;708;51.442;7.016;2023-03-14T10:31:58;10.20;79.40
1429;DHT22;708;51.442;7.016;2023-03-14T10:34:27;10.20;82.30
1429;DHT22;708;51.442;7.016;2023-03-14T10:36:57;10.20;79.60
1429;DHT22;708;51.442;7.016;2023-03-14T10:39:37;10.10;90.20
1429;DHT22;708;51.442;7.016;2023-03-14T10:42:14;10.00;99.90
1429;DHT22;708;51.442;7.016;2023-03-14T10:44:41;10.00;99.90
1429;DHT22;708;51.442;7.016;2023-03-14T10:47:16;9.90;99.90
1429;DHT22;708;51.442;7.016;2023-03-14T10:49:44;9.80;81.80
1429;DHT22;708;51.442;7.016;2023-03-14T10:52:20;9.70;44.60
1429;DHT22;708;51.442;7.016;2023-03-14T10:54:54;9.50;20.00
1429;DHT22;708;51.442;7.016;2023-03-14T10:57:21;9.20;8.80
1429;DHT22;708;51.442;7.016;2023-03-14T10:59:48;9.20;23.50
1429;DHT22;708;51.442;7.016;2023-03-14T11:02:32;9.20;17.80
1429;DHT22;708;51.442;7.016;2023-03-14T11:05:12;9.20;1.90
1429;DHT22;708;51.442;7.016;2023-03-14T11:07:43;9.20;7.40
1429;DHT22;708;51.442;7.016;2023-03-14T11:10:25;9.20;6.50
1429;DHT22;708;51.442;7.016;2023-03-14T11:13:00;9.30;12.20
1429;DHT22;708;51.442;7.016;2023-03-14T11:15:34;9.40;7.40
1429;DHT22;708;51.442;7.016;2023-03-14T11:18:25;9.50;1.00
1429;DHT22;708;51.442;7.016;2023-03-14T11:20:58;9.60;1.00
1429;DHT22;708;51.442;7.016;2023-03-14T11:23:30;9.80;1.00
1429;DHT22;708;51.442;7.016;2023-03-14T11:26:05;10.10;1.00
1429;DHT22;708;51.442;7.016;2023-03-14T11:28:37;10.20;1.00
1429;DHT22;708;51.442;7.016;2023-03-14T11:31:10;10.30;1.00
1429;DHT22;708;51.442;7.016;2023-03-14T11:33:47;10.30;1.00
1429;DHT22;708;51.442;7.016;2023-03-14T11:36:22;10.20;1.00
1429;DHT22;708;51.442;7.016;2023-03-14T11:38:53;10.20;1.00
1429;DHT22;708;51.442;7.016;2023-03-14T11:41:25;10.30;1.00
1429;DHT22;708;51.442;7.016;2023-03-14T11:43:55;10.40;1.00
1429;DHT22;708;51.442;7.016;2023-03-14T11:46:26;10.50;1.00
1429;DHT22;708;51.442;7.016;2023-03-14T11:48:59;10.50;1.00
1429;DHT22;708;51.442;7.016;2023-03-14T11:51:29;10.50;1.00
1429;DHT22;708;51.442;7.016;2023-03-14T11:54:02;10.40;1.00
1429;DHT22;708;51.442;7.016;2023-03-14T11:56:35;10.40;1.00
1429;DHT22;708;51.442;7.016;2023-03-14T11:59:07;10.40;1.00
1429;DHT22;708;51.442;7.016;2023-03-14T12:01:49;10.30;1.00
1429;DHT22;708;51.442;7.016;2023-03-14T12:04:42;10.40;1.00
1429;DHT22;708;51.442;7.016;2023-03-14T12:07:17;10.60;1.00
1429;DHT22;708;51.442;7.016;2023-03-14T12:09:47;10.70;99.90
1429;DHT22;708;51.442;7.016;2023-03-14T12:12:20;10.80;99.90
1429;DHT22;708;51.442;7.016;2023-03-14T12:14:54;10.70;99.90
1429;DHT22;708;51.442;7.016;2023-03-14T12:17:23;10.80;1.00
1429;DHT22;708;51.442;7.016;2023-03-14T12:20:02;11.10;99.90
1429;DHT22;708;51.442;7.016;2023-03-14T12:22:33;11.40;99.90
1429;DHT22;708;51.442;7.016;2023-03-14T12:25:05;11.80;99.90
1429;DHT22;708;51.442;7.016;2023-03-14T12:28:03;12.00;99.90
1429;DHT22;708;51.442;7.016;2023-03-14T12:30:32;12.40;99.90
1429;DHT22;708;51.442;7.016;2023-03-14T12:33:32;12.70;1.00
1429;DHT22;708;51.442;7.016;2023-03-14T12:36:02;13.00;1.00
1429;DHT22;708;51.442;7.016;2023-03-14T12:38:41;12.90;46.70
1429;DHT22;708;51.442;7.016;2023-03-14T12:41:15;13.10;99.90
1429;DHT22;708;51.442;7.016;2023-03-14T12:43:45;13.10;99.90
1429;DHT22;708;51.442;7.016;2023-03-14T12:46:19;12.80;99.90
1429;DHT22;708;51.442;7.016;2023-03-14T12:48:48;12.70;99.90
1429;DHT22;708;51.442;7.016;2023-03-14T12:51:17;12.40;99.90
1429;DHT22;708;51.442;7.016;2023-03-14T12:54:02;12.20;99.90
1429;DHT22;708;51.442;7.016;2023-03-14T12:56:45;11.60;1.00
1429;DHT22;708;51.442;7.016;2023-03-14T12:59:29;11.10;99.90
1429;DHT22;708;51.442;7.016;2023-03-14T13:02:00;10.50;1.00
1429;DHT22;708;51.442;7.016;2023-03-14T13:04:31;10.20;1.00
1429;DHT22;708;51.442;7.016;2023-03-14T13:07:00;10.20;30.00
1429;DHT22;708;51.442;7.016;2023-03-14T13:09:52;10.30;99.90
1429;DHT22;708;51.442;7.016;2023-03-14T13:12:25;10.40;99.90
1429;DHT22;708;51.442;7.016;2023-03-14T13:14:58;10.50;99.90
1429;DHT22;708;51.442;7.016;2023-03-14T13:17:27;10.70;99.90
1429;DHT22;708;51.442;7.016;2023-03-14T13:19:59;11.00;1.00
1429;DHT22;708;51.442;7.016;2023-03-14T13:22:29;11.20;1.00
1429;DHT22;708;51.442;7.016;2023-03-14T13:25:00;10.90;99.90
1429;DHT22;708;51.442;7.016;2023-03-14T13:27:31;10.70;99.90
1429;DHT22;708;51.442;7.016;2023-03-14T13:30:05;10.50;53.30
1429;DHT22;708;51.442;7.016;2023-03-14T13:32:32;10.30;1.00
1429;DHT22;708;51.442;7.016;2023-03-14T13:34:59;10.20;1.00
1429;DHT22;708;51.442;7.016;2023-03-14T13:37:27;10.10;99.90
1429;DHT22;708;51.442;7.016;2023-03-14T13:39:55;10.10;1.00
1429;DHT22;708;51.442;7.016;2023-03-14T13:42:25;10.10;99.90
1429;DHT22;708;51.442;7.016;2023-03-14T13:44:53;10.20;99.90
1429;DHT22;708;51.442;7.016;2023-03-14T13:47:24;10.30;1.00
1429;DHT22;708;51.442;7.016;2023-03-14T13:49:51;10.40;33.20
1429;DHT22;708;51.442;7.016;2023-03-14T13:52:23;10.50;99.90
1429;DHT22;708;51.442;7.016;2023-03-14T13:54:53;10.60;32.40
1429;DHT22;708;51.442;7.016;2023-03-14T13:57:20;10.70;1.00
1429;DHT22;708;51.442;7.016;2023-03-14T13:59:59;10.90;99.90
1429;DHT22;708;51.442;7.016;2023-03-14T14:02:28;10.80;99.90
1429;DHT22;708;51.442;7.016;2023-03-14T14:04:55;10.80;1.00
1429;DHT22;708;51.442;7.016;2023-03-14T14:07:22;10.90;99.90
1429;DHT22;708;51.442;7.016;2023-03-14T14:09:52;11.00;1.00
1429;DHT22;708;51.442;7.016;2023-03-14T14:12:25;11.00;1.00
1429;DHT22;708;51.442;7.016;2023-03-14T14:14:57;11.10;99.90
1429;DHT22;708;51.442;7.016;2023-03-14T14:17:30;11.10;99.90
1429;DHT22;708;51.442;7.016;2023-03-14T14:19:59;11.20;44.00
1429;DHT22;708;51.442;7.016;2023-03-14T14:22:30;11.40;6.50
1429;DHT22;708;51.442;7.016;2023-03-14T14:24:57;11.70;1.00
1429;DHT22;708;51.442;7.016;2023-03-14T14:27:28;12.00;1.00
1429;DHT22;708;51.442;7.016;2023-03-14T14:29:58;12.20;99.90
1429;DHT22;708;51.442;7.016;2023-03-14T14:32:34;12.00;99.90
1429;DHT22;708;51.442;7.016;2023-03-14T14:35:01;11.90;99.90
1429;DHT22;708;51.442;7.016;2023-03-14T14:37:31;11.50;99.90
1429;DHT22;708;51.442;7.016;2023-03-14T14:40:00;11.30;99.90
1429;DHT22;708;51.442;7.016;2023-03-14T14:42:30;11.20;99.90
1429;DHT22;708;51.442;7.016;2023-03-14T14:44:58;10.90;99.90
1429;DHT22;708;51.442;7.016;2023-03-14T14:47:28;10.80;99.90
1429;DHT22;708;51.442;7.016;2023-03-14T14:49:59;10.70;99.90
1429;DHT22;708;51.442;7.016;2023-03-14T14:52:33;10.60;99.90
1429;DHT22;708;51.442;7.016;2023-03-14T14:55:01;10.40;99.90
1429;DHT22;708;51.442;7.016;2023-03-14T14:57:36;10.30;99.90
1429;DHT22;708;51.442;7.016;2023-03-14T15:00:18;10.20;99.90
1429;DHT22;708;51.442;7.016;2023-03-14T15:02:48;10.00;99.90
1429;DHT22;708;51.442;7.016;2023-03-14T15:05:17;9.90;99.90
1429;DHT22;708;51.442;7.016;2023-03-14T15:07:44;9.70;99.90
1429;DHT22;708;51.442;7.016;2023-03-14T15:10:12;9.60;99.90
1429;DHT22;708;51.442;7.016;2023-03-14T15:12:39;9.50;99.90
1429;DHT22;708;51.442;7.016;2023-03-14T15:15:08;9.50;99.90
1429;DHT22;708;51.442;7.016;2023-03-14T15:17:35;9.40;99.90
1429;DHT22;708;51.442;7.016;2023-03-14T15:20:05;9.40;99.90
1429;DHT22;708;51.442;7.016;2023-03-14T15:22:32;9.40;99.90
1429;DHT22;708;51.442;7.016;2023-03-14T15:24:59;9.50;99.90
1429;DHT22;708;51.442;7.016;2023-03-14T15:27:28;9.50;99.90
1429;DHT22;708;51.442;7.016;2023-03-14T15:29:56;9.50;99.90
1429;DHT22;708;51.442;7.016;2023-03-14T15:32:24;9.50;99.90
1429;DHT22;708;51.442;7.016;2023-03-14T15:34:53;9.50;99.90
1429;DHT22;708;51.442;7.016;2023-03-14T15:37:22;9.40;99.90
1429;DHT22;708;51.442;7.016;2023-03-14T15:39:49;9.40;99.90
1429;DHT22;708;51.442;7.016;2023-03-14T15:42:15;9.50;99.90
1429;DHT22;708;51.442;7.016;2023-03-14T15:44:42;9.50;99.90
1429;DHT22;708;51.442;7.016;2023-03-14T15:47:10;9.50;99.90
1429;DHT22;708;51.442;7.016;2023-03-14T15:49:37;9.50;99.90
1429;DHT22;708;51.442;7.016;2023-03-14T15:52:04;9.40;99.90
1429;DHT22;708;51.442;7.016;2023-03-14T15:54:34;9.50;99.90
1429;DHT22;708;51.442;7.016;2023-03-14T15:57:01;9.40;99.90
1429;DHT22;708;51.442;7.016;2023-03-14T15:59:28;9.50;99.90
1429;DHT22;708;51.442;7.016;2023-03-14T16:01:54;9.50;99.90
1429;DHT22;708;51.442;7.016;2023-03-14T16:04:22;9.50;99.90
1429;DHT22;708;51.442;7.016;2023-03-14T16:06:48;9.40;99.90
1429;DHT22;708;51.442;7.016;2023-03-14T16:09:15;9.40;99.90
1429;DHT22;708;51.442;7.016;2023-03-14T16:11:43;9.50;99.90
1429;DHT22;708;51.442;7.016;2023-03-14T16:14:11;9.50;99.90
1429;DHT22;708;51.442;7.016;2023-03-14T16:16:38;9.50;99.90
1429;DHT22;708;51.442;7.016;2023-03-14T16:19:06;9.40;99.90
1429;DHT22;708;51.442;7.016;2023-03-14T16:21:33;9.40;99.90
1429;DHT22;708;51.442;7.016;2023-03-14T16:23:59;9.40;99.90
1429;DHT22;708;51.442;7.016;2023-03-14T16:26:27;9.30;99.90
1429;DHT22;708;51.442;7.016;2023-03-14T16:28:55;9.30;99.90
1429;DHT22;708;51.442;7.016;2023-03-14T16:31:22;9.30;99.90
1429;DHT22;708;51.442;7.016;2023-03-14T16:33:50;9.20;99.90
1429;DHT22;708;51.442;7.016;2023-03-14T16:36:17;9.20;99.90